createdAt,value
2018-07-12T00:00:37.911Z,35.30
2018-07-12T00:03:05.106Z,46.60
2018-07-12T00:05:32.308Z,31.60
2018-07-12T00:07:59.779Z,30.80
2018-07-12T00:10:27.488Z,32.80
2018-07-12T00:12:54.679Z,31.33
2018-07-12T00:15:21.877Z,30.40
2018-07-12T00:17:49.081Z,30.00
2018-07-12T00:20:16.299Z,35.30
2018-07-12T00:22:43.484Z,34.70
2018-07-12T00:25:10.689Z,42.93
2018-07-12T00:27:37.925Z,34.50
2018-07-12T00:30:05.109Z,34.53
2018-07-12T00:32:32.332Z,36.47
2018-07-12T00:34:59.549Z,43.23
2018-07-12T00:37:27.020Z,32.10
2018-07-12T00:39:54.216Z,32.30
2018-07-12T00:42:21.437Z,34.07
2018-07-12T00:44:48.639Z,27.83
2018-07-12T00:47:15.919Z,36.80
2018-07-12T00:49:43.126Z,31.63
2018-07-12T00:52:10.320Z,35.67
2018-07-12T00:54:37.527Z,27.70
2018-07-12T00:57:04.744Z,25.77
2018-07-12T00:59:31.951Z,27.30
2018-07-12T01:01:59.164Z,30.70
2018-07-12T01:04:26.362Z,31.50
2018-07-12T01:06:53.912Z,28.13
2018-07-12T01:09:21.120Z,30.80
2018-07-12T01:11:48.315Z,38.00
2018-07-12T01:14:15.831Z,39.13
2018-07-12T01:16:43.036Z,28.60
2018-07-12T01:19:10.484Z,36.97
2018-07-12T01:21:38.001Z,29.87
2018-07-12T01:24:05.331Z,30.83
2018-07-12T01:26:32.769Z,30.63
2018-07-12T01:28:59.989Z,33.40
2018-07-12T01:31:27.258Z,32.00
2018-07-12T01:33:55.319Z,29.83
2018-07-12T01:36:22.509Z,36.20
2018-07-12T01:38:49.724Z,31.23
2018-07-12T01:41:16.957Z,27.17
2018-07-12T01:43:44.163Z,40.87
2018-07-12T01:46:11.359Z,28.27
2018-07-12T01:48:38.586Z,49.40
2018-07-12T01:51:05.788Z,32.43
2018-07-12T01:53:33.252Z,42.70
2018-07-12T01:56:00.466Z,43.50
2018-07-12T01:58:27.664Z,40.97
2018-07-12T02:00:54.857Z,32.87
2018-07-12T02:03:22.055Z,48.77
2018-07-12T02:05:49.260Z,41.80
2018-07-12T02:08:16.450Z,44.30
2018-07-12T02:10:43.907Z,33.73
2018-07-12T02:13:11.106Z,42.97
2018-07-12T02:15:38.300Z,38.37
2018-07-12T02:18:05.759Z,59.90
2018-07-12T02:20:33.226Z,29.47
2018-07-12T02:23:00.427Z,46.10
2018-07-12T02:25:27.620Z,42.63
2018-07-12T02:27:55.110Z,44.73
2018-07-12T02:30:22.320Z,27.83
2018-07-12T02:32:49.817Z,38.00
2018-07-12T02:35:17.020Z,45.60
2018-07-12T02:37:44.219Z,37.57
2018-07-12T02:40:11.435Z,45.70
2018-07-12T02:42:38.892Z,43.40
2018-07-12T02:45:06.340Z,47.80
2018-07-12T02:47:33.539Z,48.80
2018-07-12T02:50:00.734Z,42.73
2018-07-12T02:52:27.934Z,45.00
2018-07-12T02:54:55.140Z,42.67
2018-07-12T02:57:22.339Z,41.10
2018-07-12T02:59:49.535Z,45.00
2018-07-12T03:02:16.729Z,43.97
2018-07-12T03:04:43.943Z,43.23
2018-07-12T03:07:11.142Z,40.50
2018-07-12T03:09:38.348Z,35.33
2018-07-12T03:12:05.808Z,38.90
2018-07-12T03:14:33.278Z,44.93
2018-07-12T03:17:00.481Z,38.57
2018-07-12T03:19:27.693Z,48.73
2018-07-12T03:21:54.921Z,37.87
2018-07-12T03:24:22.381Z,45.13
2018-07-12T03:26:49.854Z,34.13
2018-07-12T03:29:17.054Z,31.43
2018-07-12T03:31:44.247Z,44.60
2018-07-12T03:34:11.448Z,38.00
2018-07-12T03:36:38.644Z,34.87
2018-07-12T03:39:05.840Z,30.00
2018-07-12T03:41:33.040Z,44.73
2018-07-12T03:44:00.512Z,47.50
2018-07-12T03:46:27.726Z,34.90
2018-07-12T03:48:54.915Z,33.83
2018-07-12T03:51:22.135Z,33.53
2018-07-12T03:53:49.340Z,38.57
2018-07-12T03:56:16.548Z,42.30
2018-07-12T03:58:44.028Z,28.47
2018-07-12T04:01:11.231Z,34.17
2018-07-12T04:03:38.471Z,47.03
2018-07-12T04:06:05.621Z,36.90
2018-07-12T04:08:32.832Z,46.00
2018-07-12T04:11:00.106Z,39.67
2018-07-12T04:13:27.244Z,29.93
2018-07-12T04:15:54.520Z,39.67
2018-07-12T04:18:21.723Z,37.43
2018-07-12T04:20:48.935Z,37.00
2018-07-12T04:23:16.140Z,36.43
2018-07-12T04:25:43.349Z,34.47
2018-07-12T04:28:10.548Z,41.37
2018-07-12T04:30:37.756Z,34.80
2018-07-12T04:33:04.965Z,35.07
2018-07-12T04:35:32.168Z,22.20
2018-07-12T04:37:59.623Z,34.67
2018-07-12T04:40:26.848Z,34.87
2018-07-12T04:42:54.070Z,35.97
2018-07-12T04:45:21.267Z,44.83
2018-07-12T04:47:48.484Z,35.33
2018-07-12T04:50:15.696Z,30.23
2018-07-12T04:52:42.913Z,31.80
2018-07-12T04:55:10.391Z,29.30
2018-07-12T04:57:37.598Z,26.17
2018-07-12T05:00:04.804Z,26.23
2018-07-12T05:02:32.024Z,33.40
2018-07-12T05:04:59.248Z,26.20
2018-07-12T05:07:26.445Z,20.33
2018-07-12T05:09:53.669Z,25.10
2018-07-12T05:12:20.881Z,29.13
2018-07-12T05:14:48.073Z,23.57
2018-07-12T05:17:15.308Z,26.20
2018-07-12T05:19:43.107Z,27.10
2018-07-12T05:22:10.572Z,20.60
2018-07-12T05:24:37.760Z,28.97
2018-07-12T05:27:04.961Z,20.30
2018-07-12T05:29:32.427Z,26.10
2018-07-12T05:31:59.627Z,24.90
2018-07-12T05:34:26.831Z,20.73
2018-07-12T05:36:56.340Z,19.53
2018-07-12T05:39:24.588Z,17.57
2018-07-12T05:41:52.715Z,18.80
2018-07-12T05:44:20.885Z,16.07
2018-07-12T05:46:49.612Z,17.27
2018-07-12T05:49:17.783Z,18.57
2018-07-12T05:51:46.612Z,26.87
2018-07-12T05:54:15.507Z,20.40
2018-07-12T05:56:43.712Z,17.23
2018-07-12T05:59:11.895Z,20.50
2018-07-12T06:01:51.445Z,14.60
2018-07-12T06:04:19.634Z,25.63
2018-07-12T06:06:47.801Z,18.63
2018-07-12T06:09:16.239Z,15.67
2018-07-12T06:11:44.428Z,14.53
2018-07-12T06:14:12.632Z,20.33
2018-07-12T06:16:40.833Z,15.40
2018-07-12T06:19:09.020Z,16.53
2018-07-12T06:21:37.226Z,17.33
2018-07-12T06:24:05.415Z,15.43
2018-07-12T06:26:33.608Z,15.23
2018-07-12T06:29:01.794Z,16.90
2018-07-12T06:31:29.968Z,12.53
2018-07-12T06:33:58.136Z,14.20
2018-07-12T06:36:26.129Z,16.90
2018-07-12T06:38:54.401Z,16.20
2018-07-12T06:41:22.586Z,17.30
2018-07-12T06:43:50.773Z,13.03
2018-07-12T06:46:18.939Z,13.90
2018-07-12T06:48:47.133Z,13.77
2018-07-12T06:51:15.392Z,12.57
2018-07-12T06:53:43.571Z,15.43
2018-07-12T06:56:11.729Z,14.33
2018-07-12T06:58:39.900Z,11.10
2018-07-12T07:01:08.102Z,18.23
2018-07-12T07:03:36.273Z,9.80
2018-07-12T07:06:04.459Z,13.90
2018-07-12T07:08:32.629Z,10.53
2018-07-12T07:11:00.808Z,13.37
2018-07-12T07:13:29.000Z,13.87
2018-07-12T07:15:57.188Z,21.07
2018-07-12T07:18:25.353Z,20.83
2018-07-12T07:20:53.555Z,12.77
2018-07-12T07:23:21.757Z,16.10
2018-07-12T07:25:49.945Z,15.40
2018-07-12T07:28:18.125Z,12.10
2018-07-12T07:30:46.300Z,15.10
2018-07-12T07:33:14.507Z,12.17
2018-07-12T07:35:42.760Z,13.33
2018-07-12T07:38:10.895Z,17.43
2018-07-12T07:40:39.082Z,19.83
2018-07-12T07:43:07.312Z,15.80
2018-07-12T07:45:35.702Z,14.77
2018-07-12T07:48:03.895Z,15.70
2018-07-12T07:50:32.068Z,15.40
2018-07-12T07:53:00.244Z,10.97
2018-07-12T07:55:28.435Z,11.53
2018-07-12T07:57:56.688Z,14.37
2018-07-12T08:00:24.894Z,13.03
2018-07-12T08:02:53.134Z,10.57
2018-07-12T08:05:21.343Z,15.93
2018-07-12T08:07:49.509Z,11.50
2018-07-12T08:10:17.769Z,14.13
2018-07-12T08:12:45.972Z,15.70
2018-07-12T08:15:14.985Z,10.47
2018-07-12T08:17:43.389Z,14.40
2018-07-12T08:20:11.660Z,11.33
2018-07-12T08:22:40.153Z,8.70
2018-07-12T08:25:08.441Z,14.93
2018-07-12T08:27:38.067Z,12.73
2018-07-12T08:30:06.368Z,19.60
2018-07-12T08:33:34.106Z,15.07
2018-07-12T08:36:02.306Z,12.87
2018-07-12T08:38:30.540Z,17.40
2018-07-12T08:40:58.731Z,19.07
2018-07-12T08:43:27.063Z,11.43
2018-07-12T15:16:17.171Z,11.73
2018-07-12T15:18:45.532Z,7.00
2018-07-12T15:21:13.753Z,7.70
2018-07-12T15:23:42.303Z,7.10
2018-07-12T15:26:10.371Z,5.53
2018-07-12T15:28:38.416Z,9.10
2018-07-12T15:31:06.423Z,5.63
2018-07-12T15:33:35.268Z,7.70
2018-07-12T15:36:03.542Z,8.33
2018-07-12T15:38:31.755Z,8.53
2018-07-12T15:41:00.131Z,6.13
2018-07-12T15:43:28.221Z,8.53
2018-07-12T15:45:57.235Z,6.43
2018-07-12T15:48:25.553Z,11.70
2018-07-12T15:50:54.116Z,7.83
2018-07-12T15:53:22.508Z,6.37
2018-07-12T15:55:50.789Z,10.13
2018-07-12T15:58:19.074Z,9.00
2018-07-12T16:00:47.348Z,6.47
2018-07-12T16:03:15.630Z,6.87
2018-07-12T16:05:43.638Z,10.43
2018-07-12T16:08:12.016Z,12.00
2018-07-12T16:10:40.316Z,6.97
2018-07-12T16:13:08.718Z,6.30
2018-07-12T16:15:37.113Z,8.33
2018-07-12T16:18:05.435Z,3.67
2018-07-12T16:20:33.721Z,13.67
2018-07-12T16:23:02.084Z,5.13
2018-07-12T16:25:30.448Z,5.27
2018-07-12T16:27:59.527Z,5.67
2018-07-12T16:30:27.860Z,8.80
2018-07-12T16:32:56.224Z,5.83
2018-07-12T16:35:24.620Z,16.73
2018-07-12T16:37:52.836Z,10.53
2018-07-12T16:40:21.013Z,8.53
2018-07-12T16:42:49.378Z,8.23
2018-07-12T16:45:18.412Z,9.47
2018-07-12T16:47:46.707Z,7.53
2018-07-12T16:50:15.041Z,8.80
2018-07-12T16:52:43.643Z,4.43
2018-07-12T16:55:12.240Z,8.37
2018-07-12T16:57:41.594Z,8.03
2018-07-12T17:00:09.580Z,7.60
2018-07-12T17:02:38.780Z,7.60
2018-07-12T17:05:07.955Z,11.07
2018-07-12T17:07:36.366Z,4.53
2018-07-12T17:10:04.792Z,4.70
2018-07-12T17:12:33.017Z,6.40
2018-07-12T17:15:01.461Z,6.27
2018-07-12T17:17:29.615Z,3.90
2018-07-12T17:19:57.817Z,7.60
2018-07-12T17:22:25.802Z,15.70
2018-07-12T17:24:54.000Z,6.10
2018-07-12T17:27:22.164Z,8.37
2018-07-12T17:29:50.406Z,5.93
2018-07-12T17:32:18.362Z,7.17
2018-07-12T17:34:46.595Z,7.53
2018-07-12T17:37:15.704Z,8.60
2018-07-12T17:39:43.897Z,10.03
2018-07-12T17:42:12.147Z,8.37
2018-07-12T17:44:40.324Z,9.43
2018-07-12T17:47:08.527Z,7.53
2018-07-12T17:49:37.056Z,4.90
2018-07-12T17:52:05.511Z,6.30
2018-07-12T17:54:33.439Z,6.77
2018-07-12T17:57:01.626Z,4.47
2018-07-12T17:59:29.791Z,7.83
2018-07-12T18:01:58.121Z,9.60
2018-07-12T18:04:26.321Z,6.00
2018-07-12T18:06:54.503Z,10.27
2018-07-12T18:09:22.728Z,14.93
2018-07-12T18:11:50.704Z,9.47
2018-07-12T18:14:18.948Z,6.33
2018-07-12T18:16:47.118Z,5.20
2018-07-12T18:19:15.309Z,7.17
2018-07-12T18:21:43.344Z,10.90
2018-07-12T18:24:11.624Z,7.13
2018-07-12T18:26:39.817Z,9.40
2018-07-12T18:29:07.756Z,6.00
2018-07-12T18:31:36.833Z,9.07
2018-07-12T18:34:05.052Z,13.40
2018-07-12T18:36:33.044Z,6.50
2018-07-12T18:39:01.232Z,10.03
2018-07-12T18:41:29.468Z,10.97
2018-07-12T18:43:57.466Z,9.37
2018-07-12T18:46:25.690Z,10.10
2018-07-12T18:48:53.862Z,5.93
2018-07-12T18:51:22.054Z,9.07
2018-07-12T18:53:50.252Z,7.90
2018-07-12T18:56:18.343Z,14.17
2018-07-12T18:58:46.622Z,10.13
2018-07-12T19:01:14.859Z,7.47
2018-07-12T19:03:43.078Z,12.87
2018-07-12T19:06:11.249Z,9.23
2018-07-12T19:08:39.536Z,9.80
2018-07-12T19:11:07.748Z,6.77
2018-07-12T19:13:35.988Z,11.83
2018-07-12T19:16:04.216Z,6.90
2018-07-12T19:18:32.239Z,11.00
2018-07-12T19:21:00.464Z,14.77
2018-07-12T19:23:28.436Z,9.37
2018-07-12T19:25:56.628Z,11.47
2018-07-12T19:28:24.800Z,10.97
2018-07-12T19:30:52.999Z,13.13
2018-07-12T19:33:21.188Z,6.13
2018-07-12T19:35:49.392Z,8.13
2018-07-12T19:38:17.602Z,9.17
2018-07-12T19:40:45.796Z,14.57
2018-07-12T19:43:13.972Z,8.80
2018-07-12T19:45:42.160Z,7.37
2018-07-12T19:48:10.365Z,7.90
2018-07-12T19:50:38.337Z,12.90
2018-07-12T19:53:06.275Z,4.97
2018-07-12T19:55:34.493Z,7.07
2018-07-12T19:58:02.703Z,6.80
2018-07-12T20:00:30.905Z,9.47
2018-07-12T20:02:59.088Z,10.20
2018-07-12T20:05:27.285Z,5.23
2018-07-12T20:07:55.227Z,8.00
2018-07-12T20:10:23.421Z,10.23
2018-07-12T20:12:51.361Z,11.93
2018-07-12T20:15:19.548Z,10.33
2018-07-12T20:17:47.746Z,12.10
2018-07-12T20:20:15.920Z,9.60
2018-07-12T20:22:44.168Z,8.53
2018-07-12T20:25:12.382Z,12.50
2018-07-12T20:27:40.486Z,12.07
2018-07-12T20:30:08.724Z,12.33
2018-07-12T20:32:37.487Z,12.97
2018-07-12T20:35:05.445Z,11.40
2018-07-12T20:37:33.639Z,19.37
2018-07-12T20:40:01.950Z,14.50
2018-07-12T20:42:30.117Z,12.87
2018-07-12T20:44:58.321Z,13.90
2018-07-12T20:47:26.511Z,11.57
2018-07-12T20:49:54.752Z,16.70
2018-07-12T20:52:22.957Z,10.17
2018-07-12T20:54:51.253Z,11.63
2018-07-12T20:57:19.364Z,15.83
2018-07-12T20:59:47.557Z,19.97
2018-07-12T21:02:15.745Z,9.73
2018-07-12T21:04:43.937Z,11.80
2018-07-12T21:07:12.121Z,9.20
2018-07-12T21:09:40.293Z,11.90
2018-07-12T21:12:08.235Z,13.70
2018-07-12T21:14:36.427Z,16.80
2018-07-12T21:17:04.657Z,11.30
2018-07-12T21:19:32.843Z,9.60
2018-07-12T21:22:01.124Z,10.37
2018-07-12T21:24:29.312Z,11.63
2018-07-12T21:26:57.492Z,13.40
2018-07-12T21:29:25.700Z,10.20
2018-07-12T21:31:53.884Z,11.83
2018-07-12T21:34:22.076Z,6.63
2018-07-12T21:36:50.284Z,8.13
2018-07-12T21:39:18.487Z,11.97
2018-07-12T21:41:46.663Z,21.53
2018-07-12T21:44:14.909Z,14.63
2018-07-12T21:46:43.133Z,8.23
2018-07-12T21:49:11.339Z,16.10
2018-07-12T21:51:39.553Z,8.03
2018-07-12T21:54:07.757Z,11.37
2018-07-12T21:56:35.975Z,11.40
2018-07-12T21:59:04.168Z,16.53
2018-07-12T22:01:32.112Z,12.10
2018-07-12T22:04:00.337Z,8.50
2018-07-12T22:08:47.116Z,14.20
2018-07-12T22:11:15.392Z,13.70
2018-07-12T22:13:43.644Z,13.70
2018-07-12T22:16:11.823Z,12.23
2018-07-12T22:18:39.993Z,9.37
2018-07-12T22:21:08.202Z,6.90
2018-07-12T22:23:36.368Z,13.83
2018-07-12T22:26:04.584Z,12.53
2018-07-12T22:28:32.752Z,9.63
2018-07-12T22:31:00.944Z,11.13
2018-07-12T22:33:29.119Z,9.93
2018-07-12T22:35:57.298Z,12.03
2018-07-12T22:38:25.467Z,14.47
2018-07-12T22:40:53.648Z,24.00
2018-07-12T22:43:21.825Z,11.90
2018-07-12T22:45:50.014Z,13.20
2018-07-12T22:48:18.307Z,10.77
2018-07-12T22:50:46.395Z,10.50
2018-07-12T22:53:14.372Z,13.40
2018-07-12T22:55:42.558Z,19.43
2018-07-12T22:58:10.722Z,15.57
2018-07-12T23:00:38.901Z,12.33
2018-07-12T23:03:07.064Z,12.07
2018-07-12T23:05:35.243Z,9.43
2018-07-12T23:08:03.538Z,12.70
2018-07-12T23:10:31.716Z,10.20
2018-07-12T23:12:59.896Z,12.80
2018-07-12T23:15:28.163Z,9.80
2018-07-12T23:17:56.340Z,19.20
2018-07-12T23:20:24.507Z,13.97
2018-07-12T23:22:52.702Z,10.73
2018-07-12T23:25:20.870Z,12.27
2018-07-12T23:27:49.056Z,12.53
2018-07-12T23:30:17.244Z,14.27
2018-07-12T23:32:45.475Z,9.13
2018-07-12T23:35:13.776Z,13.40
2018-07-12T23:37:41.977Z,15.93
2018-07-12T23:40:10.152Z,8.60
2018-07-12T23:42:38.342Z,15.17
2018-07-12T23:45:06.288Z,12.27
2018-07-12T23:47:34.460Z,11.80
2018-07-12T23:50:02.719Z,10.87
2018-07-12T23:52:30.892Z,13.30
2018-07-12T23:54:59.076Z,15.37
2018-07-12T23:57:27.253Z,14.53
2018-07-12T23:59:55.419Z,8.57
